createdAt,value
2023-01-18T00:01:19.997Z,98468.59
2023-01-18T00:03:46.667Z,98464.28
2023-01-18T00:06:13.561Z,98462.56
2023-01-18T00:08:43.771Z,98458.28
2023-01-18T00:11:16.974Z,98456.56
2023-01-18T00:13:43.956Z,98456.53
2023-01-18T00:16:12.963Z,98457.38
2023-01-18T00:18:42.834Z,98446.22
2023-01-18T00:21:11.943Z,98448.81
2023-01-18T00:23:39.076Z,98446.19
2023-01-18T00:26:07.763Z,98451.41
2023-01-18T00:28:34.801Z,98439.38
2023-01-18T00:31:15.804Z,98441.91
2023-01-18T00:33:44.125Z,98442.75
2023-01-18T00:36:11.497Z,98440.16
2023-01-18T00:38:40.761Z,98431.59
2023-01-18T00:41:07.374Z,98428.19
2023-01-18T00:43:40.389Z,98426.41
2023-01-18T00:46:08.115Z,98434.09
2023-01-18T00:48:35.170Z,98434.97
2023-01-18T00:51:01.938Z,98429.00
2023-01-18T00:53:28.821Z,98426.38
2023-01-18T00:55:55.491Z,98435.00
2023-01-18T00:58:22.063Z,98427.28
2023-01-18T01:00:53.208Z,98428.06
2023-01-18T01:03:20.811Z,98430.59
2023-01-18T01:06:06.236Z,98434.06
2023-01-18T01:08:33.238Z,98434.06
2023-01-18T01:11:11.705Z,98440.91
2023-01-18T01:13:57.461Z,98437.47
2023-01-18T01:16:43.066Z,98428.03
2023-01-18T01:19:28.353Z,98442.59
2023-01-18T01:22:14.628Z,98444.25
2023-01-18T01:24:59.931Z,98453.72
2023-01-18T01:27:26.618Z,98453.75
2023-01-18T01:29:54.372Z,98452.03
2023-01-18T01:32:20.951Z,98452.88
2023-01-18T01:34:47.536Z,98464.88
2023-01-18T01:37:14.131Z,98458.78
2023-01-18T01:39:40.825Z,98465.63
2023-01-18T01:42:11.387Z,98475.13
2023-01-18T01:44:42.940Z,98480.28
2023-01-18T01:47:14.856Z,98483.66
2023-01-18T01:49:50.679Z,98481.97
2023-01-18T01:52:21.587Z,98488.81
2023-01-18T01:55:02.837Z,98487.03
2023-01-18T01:57:33.254Z,98489.66
2023-01-18T02:00:21.124Z,98487.97
2023-01-18T02:02:51.693Z,98490.53
2023-01-18T02:05:18.650Z,98499.13
2023-01-18T02:07:45.451Z,98511.97
2023-01-18T02:10:12.387Z,98511.97
2023-01-18T02:12:40.487Z,98515.44
2023-01-18T02:15:07.931Z,98514.56
2023-01-18T02:17:44.526Z,98523.16
2023-01-18T02:20:35.240Z,98523.19
2023-01-18T02:23:07.799Z,98519.78
2023-01-18T02:25:57.687Z,98516.34
2023-01-18T02:28:29.630Z,98531.78
2023-01-18T02:31:07.028Z,98533.56
2023-01-18T02:34:06.890Z,98540.41
2023-01-18T02:36:43.446Z,98543.00
2023-01-18T02:39:40.773Z,98549.88
2023-01-18T02:42:46.686Z,98552.41
2023-01-18T02:45:38.972Z,98548.22
2023-01-18T02:48:06.518Z,98547.34
2023-01-18T02:50:33.387Z,98543.91
2023-01-18T02:53:00.171Z,98544.75
2023-01-18T02:55:33.931Z,98540.47
2023-01-18T02:58:05.135Z,98537.94
2023-01-18T03:00:34.405Z,98530.31
2023-01-18T03:03:02.050Z,98525.16
2023-01-18T03:05:30.225Z,98538.75
2023-01-18T03:08:11.510Z,98538.72
2023-01-18T03:10:47.834Z,98526.75
2023-01-18T03:13:25.897Z,98524.25
2023-01-18T03:15:56.789Z,98514.88
2023-01-18T03:19:01.270Z,98522.63
2023-01-18T03:21:41.875Z,98522.53
2023-01-18T03:24:10.062Z,98526.78
2023-01-18T03:26:40.644Z,98531.16
2023-01-18T03:29:25.771Z,98537.13
2023-01-18T03:32:16.876Z,98532.78
2023-01-18T03:35:09.046Z,98548.22
2023-01-18T03:37:37.872Z,98548.25
2023-01-18T03:40:13.506Z,98550.84
2023-01-18T03:42:44.639Z,98544.81
2023-01-18T03:45:25.792Z,98551.69
2023-01-18T03:47:52.624Z,98555.94
2023-01-18T03:50:24.287Z,98544.88
2023-01-18T03:52:55.754Z,98545.72
2023-01-18T03:55:31.296Z,98544.81
2023-01-18T03:58:01.892Z,98545.69
2023-01-18T04:00:31.467Z,98547.44
2023-01-18T04:02:59.259Z,98553.44
2023-01-18T04:05:26.140Z,98556.84
2023-01-18T04:07:52.842Z,98547.44
2023-01-18T04:10:19.810Z,98548.34
2023-01-18T04:12:46.633Z,98544.97
2023-01-18T04:15:13.311Z,98550.13
2023-01-18T04:17:40.087Z,98559.47
2023-01-18T04:20:08.687Z,98567.16
2023-01-18T04:22:35.297Z,98569.75
2023-01-18T04:25:02.001Z,98556.03
2023-01-18T04:27:28.662Z,98553.47
2023-01-18T04:29:55.375Z,98549.13
2023-01-18T04:32:22.004Z,98553.41
2023-01-18T04:34:48.620Z,98552.59
2023-01-18T04:37:15.232Z,98554.38
2023-01-18T04:39:41.811Z,98551.81
2023-01-18T04:42:08.517Z,98542.41
2023-01-18T04:44:35.128Z,98546.63
2023-01-18T04:47:01.741Z,98544.00
2023-01-18T04:49:28.402Z,98545.78
2023-01-18T04:51:55.089Z,98544.06
2023-01-18T04:54:21.653Z,98538.97
2023-01-18T04:56:51.859Z,98549.28
2023-01-18T04:59:18.561Z,98555.25
2023-01-18T05:01:45.313Z,98561.22
2023-01-18T05:04:11.983Z,98562.06
2023-01-18T05:06:38.678Z,98567.22
2023-01-18T05:09:05.437Z,98560.41
2023-01-18T05:11:32.167Z,98553.56
2023-01-18T05:13:58.772Z,98558.66
2023-01-18T05:16:25.550Z,98560.38
2023-01-18T05:18:52.192Z,98567.22
2023-01-18T05:21:18.796Z,98571.53
2023-01-18T05:23:45.481Z,98570.69
2023-01-18T05:26:16.205Z,98575.88
2023-01-18T05:28:43.140Z,98580.09
2023-01-18T05:31:09.932Z,98581.81
2023-01-18T05:33:36.626Z,98597.28
2023-01-18T05:36:03.637Z,98598.13
2023-01-18T05:38:30.412Z,98596.44
2023-01-18T05:40:57.462Z,98609.34
2023-01-18T05:43:28.216Z,98613.63
2023-01-18T05:45:55.220Z,98616.16
2023-01-18T05:48:22.045Z,98612.72
2023-01-18T05:50:49.115Z,98614.56
2023-01-18T05:53:18.898Z,98612.94
2023-01-18T05:55:54.166Z,98617.22
2023-01-18T05:58:20.863Z,98621.47
2023-01-18T06:00:47.481Z,98632.66
2023-01-18T06:03:14.712Z,98627.50
2023-01-18T06:05:41.317Z,98628.34
2023-01-18T06:08:08.005Z,98624.88
2023-01-18T06:10:34.633Z,98632.69
2023-01-18T06:13:01.407Z,98627.53
2023-01-18T06:15:28.109Z,98625.81
2023-01-18T06:17:54.751Z,98628.41
2023-01-18T06:20:21.554Z,98626.53
2023-01-18T06:22:48.205Z,98635.13
2023-01-18T06:25:14.811Z,98636.84
2023-01-18T06:27:41.645Z,98635.19
2023-01-18T06:30:10.974Z,98636.84
2023-01-18T06:32:37.676Z,98642.09
2023-01-18T06:35:04.512Z,98635.28
2023-01-18T06:37:31.110Z,98643.81
2023-01-18T06:39:57.706Z,98637.75
2023-01-18T06:42:24.422Z,98643.81
2023-01-18T06:44:51.090Z,98655.00
2023-01-18T06:47:19.950Z,98655.00
2023-01-18T06:49:48.017Z,98662.72
2023-01-18T06:52:15.474Z,98664.41
2023-01-18T06:54:42.434Z,98673.00
2023-01-18T06:57:09.036Z,98683.34
2023-01-18T06:59:35.628Z,98681.63
2023-01-18T07:02:02.393Z,98689.31
2023-01-18T07:04:29.097Z,98692.75
2023-01-18T07:06:55.857Z,98695.38
2023-01-18T07:09:22.447Z,98681.63
2023-01-18T07:11:49.185Z,98686.78
2023-01-18T07:14:15.776Z,98697.97
2023-01-18T07:16:42.459Z,98696.25
2023-01-18T07:19:09.312Z,98707.41
2023-01-18T07:21:35.913Z,98693.72
2023-01-18T07:24:02.626Z,98694.63
2023-01-18T07:26:29.301Z,98704.00
2023-01-18T07:28:58.088Z,98709.19
2023-01-18T07:31:25.219Z,98711.03
2023-01-18T07:33:52.370Z,98710.16
2023-01-18T07:36:19.477Z,98720.44
2023-01-18T07:38:47.293Z,98716.97
2023-01-18T07:41:15.357Z,98716.13
2023-01-18T07:43:43.803Z,98717.09
2023-01-18T07:46:13.553Z,98717.09
2023-01-18T07:48:40.267Z,98719.63
2023-01-18T07:51:08.822Z,98711.06
2023-01-18T07:53:36.409Z,98714.53
2023-01-18T07:56:05.427Z,98719.72
2023-01-18T07:58:32.307Z,98718.91
2023-01-18T08:01:06.995Z,98717.22
2023-01-18T08:03:33.871Z,98718.94
2023-01-18T08:06:00.974Z,98714.69
2023-01-18T08:08:29.031Z,98724.13
2023-01-18T08:10:56.881Z,98729.22
2023-01-18T08:13:24.471Z,98726.66
2023-01-18T08:15:51.683Z,98724.06
2023-01-18T08:18:18.549Z,98727.50
2023-01-18T08:20:46.062Z,98731.00
2023-01-18T08:23:15.907Z,98728.56
2023-01-18T08:25:43.011Z,98729.44
2023-01-18T08:28:10.545Z,98725.13
2023-01-18T08:30:39.651Z,98723.41
2023-01-18T08:33:07.770Z,98739.72
2023-01-18T08:35:40.609Z,98745.75
2023-01-18T08:38:07.309Z,98732.88
2023-01-18T08:40:34.012Z,98736.31
2023-01-18T08:43:02.370Z,98730.31
2023-01-18T08:45:29.203Z,98730.31
2023-01-18T08:48:00.827Z,98735.47
2023-01-18T08:50:28.311Z,98732.00
2023-01-18T08:52:54.974Z,98732.03
2023-01-18T08:55:22.159Z,98732.13
2023-01-18T08:57:49.600Z,98735.53
2023-01-18T09:00:17.514Z,98733.84
2023-01-18T09:02:44.168Z,98732.97
2023-01-18T09:05:10.819Z,98733.03
2023-01-18T09:07:37.489Z,98725.28
2023-01-18T09:10:04.865Z,98726.13
2023-01-18T09:12:34.766Z,98728.72
2023-01-18T09:15:01.944Z,98728.72
2023-01-18T09:17:28.624Z,98724.44
2023-01-18T09:19:55.257Z,98722.75
2023-01-18T09:22:22.547Z,98731.34
2023-01-18T09:24:49.207Z,98732.22
2023-01-18T09:27:16.537Z,98728.78
2023-01-18T09:29:43.290Z,98733.09
2023-01-18T09:32:09.903Z,98734.81
2023-01-18T09:34:36.661Z,98734.78
2023-01-18T09:37:03.265Z,98747.72
2023-01-18T09:39:33.398Z,98743.41
2023-01-18T09:42:04.666Z,98739.94
2023-01-18T09:44:33.759Z,98745.97
2023-01-18T09:47:04.934Z,98748.56
2023-01-18T09:49:38.143Z,98758.00
2023-01-18T09:52:23.279Z,98757.13
2023-01-18T09:55:11.937Z,98768.31
2023-01-18T09:57:47.213Z,98757.06
2023-01-18T10:00:26.135Z,98759.63
2023-01-18T10:02:57.382Z,98744.06
2023-01-18T10:05:28.398Z,98747.47
2023-01-18T10:08:03.735Z,98756.97
2023-01-18T10:10:47.366Z,98754.34
2023-01-18T10:13:43.235Z,98762.97
2023-01-18T10:16:14.819Z,98760.34
2023-01-18T10:18:48.294Z,98752.59
2023-01-18T10:21:22.973Z,98760.38
2023-01-18T10:24:15.227Z,98762.09
2023-01-18T10:26:41.828Z,98765.50
2023-01-18T10:29:22.272Z,98766.31
2023-01-18T10:31:57.190Z,98765.44
2023-01-18T10:34:28.595Z,98768.81
2023-01-18T10:36:57.599Z,98774.88
2023-01-18T10:39:29.226Z,98775.72
2023-01-18T10:42:00.976Z,98771.31
2023-01-18T10:44:28.889Z,98764.38
2023-01-18T10:47:00.620Z,98769.56
2023-01-18T10:49:35.573Z,98771.19
2023-01-18T10:52:25.137Z,98762.53
2023-01-18T10:55:03.519Z,98764.22
2023-01-18T10:57:54.288Z,98759.84
2023-01-18T11:00:33.725Z,98766.75
2023-01-18T11:03:02.867Z,98759.78
2023-01-18T11:05:32.411Z,98762.41
2023-01-18T11:08:22.549Z,98770.06
2023-01-18T11:11:00.903Z,98764.84
2023-01-18T11:13:30.388Z,98764.84
2023-01-18T11:16:15.920Z,98773.59
2023-01-18T11:19:05.069Z,98775.19
2023-01-18T11:21:41.035Z,98774.28
2023-01-18T11:24:17.105Z,98774.16
2023-01-18T11:27:01.929Z,98768.69
2023-01-18T11:29:36.212Z,98763.28
2023-01-18T11:32:05.300Z,98765.66
2023-01-18T11:34:43.537Z,98769.75
2023-01-18T11:37:36.919Z,98761.59
2023-01-18T11:40:18.956Z,98767.38
2023-01-18T11:42:46.271Z,98770.63
2023-01-18T11:45:18.431Z,98775.06
2023-01-18T11:47:54.665Z,98782.88
2023-01-18T11:50:45.724Z,98779.31
2023-01-18T11:53:43.615Z,98772.38
2023-01-18T11:56:29.952Z,98786.25
2023-01-18T11:58:56.736Z,98784.88
2023-01-18T12:01:26.954Z,98776.19
2023-01-18T12:04:04.173Z,98776.06
2023-01-18T12:06:45.459Z,98778.81
2023-01-18T12:09:29.546Z,98787.50
2023-01-18T12:12:18.589Z,98777.19
2023-01-18T12:14:55.935Z,98787.59
2023-01-18T12:17:31.403Z,98793.53
2023-01-18T12:20:14.456Z,98800.34
2023-01-18T12:22:56.363Z,98789.91
2023-01-18T12:25:38.632Z,98794.94
2023-01-18T12:28:16.568Z,98794.44
2023-01-18T12:30:55.785Z,98791.88
2023-01-18T12:33:43.046Z,98787.63
2023-01-18T12:36:19.476Z,98799.63
2023-01-18T12:38:51.584Z,98801.56
2023-01-18T12:41:30.760Z,98812.09
2023-01-18T12:44:06.084Z,98814.63
2023-01-18T12:46:59.279Z,98815.56
2023-01-18T12:49:27.575Z,98816.09
2023-01-18T12:52:17.389Z,98821.63
2023-01-18T12:54:51.179Z,98822.53
2023-01-18T12:57:19.020Z,98828.56
2023-01-18T12:59:52.922Z,98820.84
2023-01-18T13:02:33.509Z,98821.66
2023-01-18T13:05:19.186Z,98825.19
2023-01-18T13:07:52.279Z,98826.09
2023-01-18T13:10:22.014Z,98826.91
2023-01-18T13:12:49.683Z,98827.03
2023-01-18T13:15:20.843Z,98837.53
2023-01-18T13:17:54.098Z,98842.00
2023-01-18T13:20:32.005Z,98844.66
2023-01-18T13:23:19.309Z,98846.41
2023-01-18T13:25:51.546Z,98857.75
2023-01-18T13:28:20.661Z,98864.69
2023-01-18T13:31:01.960Z,98856.97
2023-01-18T13:33:49.019Z,98869.97
2023-01-18T13:36:17.558Z,98868.22
2023-01-18T13:38:56.588Z,98863.72
2023-01-18T13:41:29.320Z,98865.31
2023-01-18T13:43:58.822Z,98873.16
2023-01-18T13:46:26.178Z,98876.59
2023-01-18T13:48:58.134Z,98875.78
2023-01-18T13:51:36.811Z,98873.19
2023-01-18T13:54:09.135Z,98878.44
2023-01-18T13:56:39.635Z,98888.94
2023-01-18T13:59:12.331Z,98887.19
2023-01-18T14:01:43.175Z,98888.09
2023-01-18T14:04:22.771Z,98888.16
2023-01-18T14:06:49.773Z,98890.81
2023-01-18T14:09:18.725Z,98892.50
2023-01-18T14:11:54.319Z,98897.81
2023-01-18T14:14:20.914Z,98896.88
2023-01-18T14:17:07.161Z,98904.75
2023-01-18T14:19:49.633Z,98904.81
2023-01-18T14:22:33.737Z,98905.72
2023-01-18T14:25:17.319Z,98910.97
2023-01-18T14:27:49.258Z,98922.19
2023-01-18T14:30:25.777Z,98925.66
2023-01-18T14:33:02.184Z,98926.59
2023-01-18T14:35:29.079Z,98924.91
2023-01-18T14:38:18.690Z,98937.88
2023-01-18T14:40:47.911Z,98940.50
2023-01-18T14:43:32.337Z,98942.25
2023-01-18T14:46:04.543Z,98950.94
2023-01-18T14:48:34.508Z,98943.13
2023-01-18T14:51:02.252Z,98945.75
2023-01-18T14:53:31.699Z,98954.47
2023-01-18T14:56:24.959Z,98953.63
2023-01-18T14:58:55.700Z,98964.03
2023-01-18T15:01:37.047Z,98970.09
2023-01-18T15:04:19.574Z,98980.50
2023-01-18T15:06:56.501Z,98982.25
2023-01-18T15:09:27.886Z,98982.28
2023-01-18T15:11:59.915Z,98990.06
2023-01-18T15:14:29.496Z,98993.53
2023-01-18T15:16:57.135Z,98993.50
2023-01-18T15:19:27.008Z,99001.34
2023-01-18T15:21:53.809Z,99001.31
2023-01-18T15:24:23.075Z,99005.66
2023-01-18T15:26:54.699Z,99010.84
2023-01-18T15:29:35.914Z,99003.94
2023-01-18T15:32:06.132Z,99014.31
2023-01-18T15:34:36.422Z,99018.63
2023-01-18T15:37:05.567Z,99019.53
2023-01-18T15:39:32.878Z,99029.03
2023-01-18T15:42:05.216Z,99036.81
2023-01-18T15:44:41.418Z,99045.47
2023-01-18T15:47:26.284Z,99056.72
2023-01-18T15:49:55.950Z,99058.47
2023-01-18T15:52:43.846Z,99069.66
2023-01-18T15:55:41.331Z,99066.22
2023-01-18T15:58:14.986Z,99063.66
2023-01-18T16:00:44.508Z,99073.16
2023-01-18T16:03:22.683Z,99082.66
2023-01-18T16:06:20.411Z,99082.63
2023-01-18T16:08:58.836Z,99088.69
2023-01-18T16:11:31.564Z,99092.16
2023-01-18T16:14:00.189Z,99099.06
2023-01-18T16:16:28.873Z,99100.81
2023-01-18T16:19:01.302Z,99109.44
2023-01-18T16:21:41.915Z,99113.78
2023-01-18T16:24:16.933Z,99118.09
2023-01-18T16:26:44.079Z,99123.28
2023-01-18T16:29:11.395Z,99128.47
2023-01-18T16:31:41.197Z,99133.63
2023-01-18T16:34:19.764Z,99135.38
2023-01-18T16:36:46.971Z,99142.28
2023-01-18T16:39:13.619Z,99139.69
2023-01-18T16:41:42.170Z,99150.03
2023-01-18T16:44:10.561Z,99144.00
2023-01-18T16:46:37.195Z,99149.22
2023-01-18T16:49:04.194Z,99150.94
2023-01-18T16:51:30.858Z,99158.72
2023-01-18T16:53:58.378Z,99151.78
2023-01-18T16:56:25.016Z,99163.91
2023-01-18T16:58:51.646Z,99161.31
2023-01-18T17:01:18.483Z,99167.34
2023-01-18T17:03:45.230Z,99169.97
2023-01-18T17:06:20.021Z,99164.75
2023-01-18T17:08:46.804Z,99161.31
2023-01-18T17:11:13.564Z,99172.53
2023-01-18T17:13:40.772Z,99171.66
2023-01-18T17:16:25.591Z,99175.13
2023-01-18T17:18:52.407Z,99171.63
2023-01-18T17:21:19.031Z,99182.00
2023-01-18T17:23:45.645Z,99189.81
2023-01-18T17:26:14.252Z,99195.00
2023-01-18T17:28:40.890Z,99197.56
2023-01-18T17:31:08.394Z,99205.34
2023-01-18T17:33:39.130Z,99208.78
2023-01-18T17:36:06.745Z,99209.63
2023-01-18T17:38:34.272Z,99218.28
2023-01-18T17:41:01.194Z,99219.13
2023-01-18T17:43:33.837Z,99220.84
2023-01-18T17:46:07.676Z,99226.91
2023-01-18T17:48:34.584Z,99228.63
2023-01-18T17:51:01.285Z,99229.47
2023-01-18T17:53:27.940Z,99225.13
2023-01-18T17:55:54.543Z,99227.72
2023-01-18T17:58:21.183Z,99227.72
2023-01-18T18:00:47.887Z,99239.78
2023-01-18T18:03:14.717Z,99241.50
2023-01-18T18:05:41.369Z,99246.69
2023-01-18T18:08:08.938Z,99251.84
2023-01-18T18:10:35.688Z,99245.78
2023-01-18T18:13:02.811Z,99253.59
2023-01-18T18:15:29.650Z,99256.16
2023-01-18T18:17:56.293Z,99257.06
2023-01-18T18:20:23.353Z,99257.03
2023-01-18T18:22:50.043Z,99258.75
2023-01-18T18:25:16.739Z,99265.66
2023-01-18T18:27:46.726Z,99267.34
2023-01-18T18:30:14.857Z,99267.34
2023-01-18T18:32:41.551Z,99261.25
2023-01-18T18:35:23.766Z,99260.38
2023-01-18T18:37:51.665Z,99260.34
2023-01-18T18:40:19.450Z,99266.38
2023-01-18T18:43:00.382Z,99266.38
2023-01-18T18:45:28.453Z,99275.88
2023-01-18T18:47:55.423Z,99268.03
2023-01-18T18:50:22.138Z,99282.72
2023-01-18T18:52:48.988Z,99284.38
2023-01-18T18:55:15.866Z,99288.66
2023-01-18T18:57:42.617Z,99296.41
2023-01-18T19:00:09.904Z,99298.97
2023-01-18T19:02:36.629Z,99304.09
2023-01-18T19:05:04.127Z,99304.91
2023-01-18T19:07:30.807Z,99311.72
2023-01-18T19:09:57.409Z,99311.72
2023-01-18T19:12:24.072Z,99312.50
2023-01-18T19:14:50.707Z,99309.84
2023-01-18T19:17:28.867Z,99307.19
2023-01-18T19:19:56.403Z,99311.56
2023-01-18T19:22:23.151Z,99313.22
2023-01-18T19:24:49.797Z,99307.09
2023-01-18T19:27:16.608Z,99319.97
2023-01-18T19:29:43.345Z,99319.88
2023-01-18T19:32:10.185Z,99325.00
2023-01-18T19:34:38.531Z,99322.38
2023-01-18T19:37:05.683Z,99336.13
2023-01-18T19:39:34.834Z,99332.69
2023-01-18T19:42:02.439Z,99340.34
2023-01-18T19:44:29.369Z,99338.59
2023-01-18T19:46:57.037Z,99340.28
2023-01-18T19:49:26.198Z,99348.00
2023-01-18T19:51:54.490Z,99346.25
2023-01-18T19:54:21.670Z,99343.69
2023-01-18T19:56:48.325Z,99344.53
2023-01-18T19:59:15.121Z,99356.53
2023-01-18T20:01:42.054Z,99353.88
2023-01-18T20:04:08.936Z,99352.91
2023-01-18T20:06:38.380Z,99357.22
2023-01-18T20:09:17.698Z,99354.56
2023-01-18T20:11:45.006Z,99363.13
2023-01-18T20:14:11.950Z,99356.94
2023-01-18T20:16:38.750Z,99365.50
2023-01-18T20:19:05.597Z,99357.78
2023-01-18T20:21:32.314Z,99362.94
2023-01-18T20:23:58.961Z,99370.59
2023-01-18T20:26:36.035Z,99374.75
2023-01-18T20:29:07.338Z,99373.00
2023-01-18T20:31:35.870Z,99376.44
2023-01-18T20:34:03.308Z,99372.91
2023-01-18T20:36:30.018Z,99378.91
2023-01-18T20:38:56.751Z,99383.16
2023-01-18T20:41:23.406Z,99381.38
2023-01-18T20:43:50.093Z,99383.97
2023-01-18T20:46:16.849Z,99385.75
2023-01-18T20:48:43.682Z,99389.97
2023-01-18T20:51:10.288Z,99387.25
2023-01-18T20:53:39.877Z,99394.16
2023-01-18T20:56:20.009Z,99399.91
2023-01-18T20:58:54.360Z,99398.19
2023-01-18T21:01:21.178Z,99395.63
2023-01-18T21:03:53.869Z,99393.94
2023-01-18T21:06:20.567Z,99396.44
2023-01-18T21:08:47.210Z,99391.22
2023-01-18T21:11:16.178Z,99401.56
2023-01-18T21:13:43.168Z,99398.91
2023-01-18T21:16:10.027Z,99401.47
2023-01-18T21:18:37.655Z,99408.38
2023-01-18T21:21:04.805Z,99413.53
2023-01-18T21:23:31.611Z,99419.34
2023-01-18T21:25:59.799Z,99414.03
2023-01-18T21:28:26.735Z,99422.72
2023-01-18T21:30:55.435Z,99426.88
2023-01-18T21:33:23.335Z,99429.38
2023-01-18T21:35:50.310Z,99437.09
2023-01-18T21:38:17.227Z,99436.16
2023-01-18T21:40:44.673Z,99436.09
2023-01-18T21:43:40.315Z,99438.53
2023-01-18T21:46:10.941Z,99436.81
2023-01-18T21:48:37.588Z,99441.06
2023-01-18T21:51:23.941Z,99449.69
2023-01-18T21:54:09.745Z,99450.53
2023-01-18T21:56:36.836Z,99445.31
2023-01-18T21:59:03.548Z,99438.34
2023-01-18T22:01:34.487Z,99439.91
2023-01-18T22:04:21.567Z,99445.03
2023-01-18T22:06:48.547Z,99462.09
2023-01-18T22:09:15.201Z,99457.66
2023-01-18T22:11:42.118Z,99461.88
2023-01-18T22:14:09.458Z,99464.38
2023-01-18T22:16:36.194Z,99467.00
2023-01-18T22:19:04.842Z,99462.66
2023-01-18T22:21:32.133Z,99466.00
2023-01-18T22:23:59.357Z,99474.56
2023-01-18T22:26:27.962Z,99471.94
2023-01-18T22:28:54.615Z,99477.91
2023-01-18T22:31:21.405Z,99470.06
2023-01-18T22:33:48.444Z,99472.69
2023-01-18T22:36:16.195Z,99479.56
2023-01-18T22:38:43.866Z,99476.00
2023-01-18T22:41:16.029Z,99479.34
2023-01-18T22:43:43.625Z,99475.84
2023-01-18T22:46:13.474Z,99484.47
2023-01-18T22:48:41.313Z,99485.28
2023-01-18T22:51:10.789Z,99488.63
2023-01-18T22:53:37.681Z,99483.38
2023-01-18T22:56:10.570Z,99484.97
2023-01-18T22:58:37.578Z,99491.22
2023-01-18T23:01:04.791Z,99498.94
2023-01-18T23:03:31.578Z,99497.94
2023-01-18T23:06:00.208Z,99488.41
2023-01-18T23:08:42.588Z,99490.06
2023-01-18T23:11:16.657Z,99493.47
2023-01-18T23:14:05.114Z,99498.44
2023-01-18T23:16:53.339Z,99505.34
2023-01-18T23:19:24.159Z,99518.16
2023-01-18T23:21:51.374Z,99514.66
2023-01-18T23:24:18.900Z,99519.78
2023-01-18T23:26:45.593Z,99528.34
2023-01-18T23:29:12.495Z,99517.28
2023-01-18T23:31:44.871Z,99519.00
2023-01-18T23:34:11.625Z,99513.91
2023-01-18T23:36:38.455Z,99516.50
2023-01-18T23:39:23.782Z,99516.53
2023-01-18T23:42:09.141Z,99511.91
2023-01-18T23:44:55.433Z,99518.81
2023-01-18T23:47:40.741Z,99522.25
2023-01-18T23:50:29.545Z,99533.94
2023-01-18T23:53:14.744Z,99531.25
2023-01-18T23:55:41.729Z,99524.47
2023-01-18T23:58:08.620Z,99533.94
